Pittem, Belgium
Current Conditions -  °F | °C
As of 3:20 AM on Thursday 27 Nov 2014 (Local Time) from EBOS Reporting Station
Moderate Fog Moderate Fog  
Wind Chill: 46°   Ceiling: 100
Heat Index: 48°   Visibility: 0.43mi
Dew Point: 48°   Wind: 6mph
Humidity: 100%   Direction: 160°SSE
Pressure: 29.74"   Gusts: NA
Location:  50.99°N, 3.26°E
Report Text: EBOS 270220Z 16005KT 0700 R08/0900N R26/0900N FG BKN001 BKN002 09/09 Q1007 TEMPO 0500 FG
Loading
Personal Weather Stations






























Interactive Weather Map New forecast layout! Learn more

10-Day Weather Forecast

Advertisements
Track Severe Weather on mobile